Time;durP1;ratioP1;P1;durP2;ratioP2;P2;SDS_P1;SDS_P2;PMS_P1;PMS_P2;Temp;Humidity;BMP_temperature;BMP_pressure;BME280_temperature;BME280_humidity;BME280_pressure;Samples;Min_cycle;Max_cycle;Signal;HPM_P1;HPM_P2
2023/10/02 00:01:10;;;;;;;20.17;9.98;;;14.80;99.90;;;;;;5052513;28;20020;-45
2023/10/02 00:03:39;;;;;;;17.77;9.27;;;14.80;99.90;;;;;;5052179;28;20392;-46
2023/10/02 00:06:05;;;;;;;19.33;9.75;;;14.80;99.90;;;;;;5052174;28;20035;-46
2023/10/02 00:08:40;;;;;;;20.70;10.27;;;14.80;99.90;;;;;;5052341;28;20043;-48
2023/10/02 00:14:18;;;;;;;16.35;8.57;;;14.80;99.90;;;;;;5052231;28;20441;-44
2023/10/02 00:17:00;;;;;;;18.58;9.32;;;14.80;99.90;;;;;;5052173;28;20472;-44
2023/10/02 00:19:32;;;;;;;18.77;9.70;;;14.70;99.90;;;;;;5052151;28;20029;-44
2023/10/02 00:22:03;;;;;;;16.67;8.70;;;14.70;99.90;;;;;;5052079;28;20021;-48
2023/10/02 00:24:32;;;;;;;16.60;9.93;;;14.60;99.90;;;;;;5051904;28;20441;-46
2023/10/02 00:26:57;;;;;;;22.25;9.48;;;14.60;99.90;;;;;;5051939;28;20033;-45
2023/10/02 00:29:26;;;;;;;17.08;9.85;;;14.50;99.90;;;;;;5051802;28;20043;-44
2023/10/02 00:31:54;;;;;;;17.95;8.18;;;14.40;99.90;;;;;;5052414;28;20045;-44
2023/10/02 00:34:31;;;;;;;18.00;9.20;;;14.50;99.90;;;;;;5051077;28;20240;-46
2023/10/02 00:37:12;;;;;;;16.27;9.65;;;14.50;99.90;;;;;;5051796;28;20451;-46
2023/10/02 00:39:39;;;;;;;15.48;8.98;;;14.40;99.90;;;;;;5051780;28;20491;-45
2023/10/02 00:42:24;;;;;;;18.48;9.35;;;14.30;99.90;;;;;;5051700;28;20036;-48
2023/10/02 00:44:54;;;;;;;16.23;9.90;;;14.20;99.90;;;;;;5058717;22;20038;-45
2023/10/02 00:50:08;;;;;;;16.77;9.02;;;14.10;99.90;;;;;;5009963;28;20033;-48
2023/10/02 00:52:40;;;;;;;18.25;8.75;;;14.10;99.90;;;;;;5009556;28;20101;-52
2023/10/02 00:55:27;;;;;;;19.98;10.20;;;14.10;99.90;;;;;;5010852;28;20021;-49
2023/10/02 00:57:56;;;;;;;78.53;48.58;;;14.10;99.90;;;;;;4999727;28;20033;-51
2023/10/02 01:00:30;;;;;;;179.18;109.18;;;14.10;99.90;;;;;;5011231;28;20025;-48
2023/10/02 01:02:58;;;;;;;19.65;11.82;;;14.00;99.90;;;;;;5011599;28;20033;-47
2023/10/02 01:05:41;;;;;;;13.13;8.32;;;14.00;99.90;;;;;;5010782;28;20501;-50
2023/10/02 01:08:42;;;;;;;17.25;9.20;;;13.90;99.90;;;;;;5011751;28;20438;-52
2023/10/02 01:11:13;;;;;;;20.08;10.60;;;13.90;99.90;;;;;;5011731;28;20026;-51
2023/10/02 01:13:40;;;;;;;13.50;9.10;;;13.70;99.90;;;;;;5011508;28;20385;-47
2023/10/02 01:16:08;;;;;;;21.75;9.90;;;13.70;99.90;;;;;;5011420;28;20047;-52
2023/10/02 01:18:38;;;;;;;17.85;10.55;;;13.80;99.90;;;;;;5011574;28;20592;-51
2023/10/02 01:21:12;;;;;;;17.10;8.90;;;13.80;99.90;;;;;;5011887;28;20022;-52
2023/10/02 01:24:11;;;;;;;18.95;9.57;;;13.80;99.90;;;;;;5011471;28;20393;-50
2023/10/02 01:26:40;;;;;;;19.90;10.25;;;13.80;99.90;;;;;;5011571;28;20014;-48
2023/10/02 01:29:07;;;;;;;16.73;9.90;;;13.80;99.90;;;;;;5011478;28;20026;-55
2023/10/02 01:31:40;;;;;;;14.77;9.35;;;13.90;99.90;;;;;;5011566;28;20029;-47
2023/10/02 01:34:06;;;;;;;18.38;10.48;;;13.80;99.90;;;;;;5010095;28;20042;-53
2023/10/02 01:36:32;;;;;;;19.67;10.40;;;13.90;99.90;;;;;;5011067;28;20030;-50
2023/10/02 01:39:10;;;;;;;18.20;8.80;;;13.90;99.90;;;;;;5011436;28;20065;-50
2023/10/02 01:41:36;;;;;;;15.32;9.18;;;13.80;99.90;;;;;;5011431;28;20117;-49
2023/10/02 01:44:06;;;;;;;17.35;9.90;;;13.90;99.90;;;;;;5009708;28;20057;-44
2023/10/02 01:46:36;;;;;;;16.85;9.80;;;13.90;99.90;;;;;;5011403;28;20093;-46
2023/10/02 01:49:02;;;;;;;21.02;9.05;;;13.90;99.90;;;;;;5011559;28;20444;-45
2023/10/02 01:51:27;;;;;;;17.58;9.02;;;13.80;99.90;;;;;;5010400;28;20029;-48
2023/10/02 01:54:03;;;;;;;16.33;9.45;;;13.80;99.90;;;;;;5011641;28;20034;-46
2023/10/02 01:56:31;;;;;;;17.42;8.52;;;13.80;99.90;;;;;;5011927;28;20037;-50
2023/10/02 01:59:14;;;;;;;16.73;9.50;;;13.80;99.90;;;;;;5012118;28;20029;-45
2023/10/02 02:02:14;;;;;;;15.65;9.52;;;13.80;99.90;;;;;;5012175;28;20029;-49
2023/10/02 02:04:33;;;;;;;17.63;9.85;;;13.70;99.90;;;;;;5009243;28;20045;-47
2023/10/02 02:07:00;;;;;;;15.45;9.88;;;13.70;99.90;;;;;;5011914;28;20034;-47
2023/10/02 02:09:30;;;;;;;18.80;8.90;;;13.70;99.90;;;;;;5011844;28;20101;-46
2023/10/02 02:14:52;;;;;;;13.15;8.30;;;13.60;99.90;;;;;;5002897;28;20038;-42
2023/10/02 02:17:21;;;;;;;17.95;9.13;;;13.60;99.90;;;;;;5014966;28;20018;-46
2023/10/02 02:19:50;;;;;;;17.00;8.82;;;13.60;99.90;;;;;;5014946;28;20026;-47
2023/10/02 02:22:31;;;;;;;15.32;8.02;;;13.60;99.90;;;;;;5015028;28;20498;-51
2023/10/02 02:25:00;;;;;;;16.73;10.30;;;13.60;99.90;;;;;;5014577;28;20037;-46
2023/10/02 02:27:27;;;;;;;16.65;10.50;;;13.60;99.90;;;;;;5014802;28;20056;-48
2023/10/02 02:29:56;;;;;;;19.73;9.20;;;13.60;99.90;;;;;;5014476;28;20076;-44
2023/10/02 02:32:36;;;;;;;17.17;9.38;;;13.60;99.90;;;;;;5014427;28;20084;-45
2023/10/02 02:35:09;;;;;;;15.10;8.98;;;13.60;99.90;;;;;;5014035;28;20054;-46
2023/10/02 02:37:34;;;;;;;18.15;9.82;;;13.60;99.90;;;;;;5014488;28;20485;-48
2023/10/02 02:42:50;;;;;;;22.23;10.68;;;13.60;99.90;;;;;;5014310;28;20037;-52
2023/10/02 02:45:28;;;;;;;22.05;8.75;;;13.50;99.90;;;;;;5014144;28;20038;-45
2023/10/02 02:48:06;;;;;;;17.60;8.48;;;13.50;99.90;;;;;;5014381;28;20437;-46
2023/10/02 02:50:36;;;;;;;16.42;8.98;;;13.50;99.90;;;;;;5014460;28;20480;-46
2023/10/02 02:53:21;;;;;;;14.80;8.98;;;13.50;99.90;;;;;;5014225;28;20025;-46
2023/10/02 02:56:16;;;;;;;17.85;9.00;;;13.60;99.90;;;;;;5014038;28;20110;-46
2023/10/02 02:58:45;;;;;;;18.55;9.82;;;13.50;99.90;;;;;;5013895;28;20040;-46
2023/10/02 03:01:22;;;;;;;16.00;9.27;;;13.50;99.90;;;;;;5013796;28;20017;-46
2023/10/02 03:03:51;;;;;;;14.23;8.65;;;13.50;99.90;;;;;;5013672;28;20389;-47
2023/10/02 03:06:21;;;;;;;17.55;9.10;;;13.50;99.90;;;;;;5013659;28;20149;-44
2023/10/02 03:08:51;;;;;;;16.67;9.07;;;13.50;99.90;;;;;;5013763;28;20485;-47
2023/10/02 03:11:22;;;;;;;21.13;9.40;;;13.50;99.90;;;;;;5013998;28;20029;-47
2023/10/02 03:13:48;;;;;;;20.40;10.70;;;13.50;99.90;;;;;;5014147;28;20022;-46
2023/10/02 03:16:28;;;;;;;25.05;10.20;;;13.50;99.90;;;;;;5013629;28;20426;-46
2023/10/02 03:18:54;;;;;;;14.95;8.82;;;13.50;99.90;;;;;;5013852;28;20547;-49
2023/10/02 03:21:24;;;;;;;16.75;9.75;;;13.50;99.90;;;;;;5014166;28;20030;-46
2023/10/02 03:23:53;;;;;;;17.40;9.63;;;13.40;99.90;;;;;;5013648;28;20629;-45
2023/10/02 03:26:27;;;;;;;15.27;9.02;;;13.40;99.90;;;;;;5012815;28;20033;-42
2023/10/02 03:29:02;;;;;;;14.98;8.60;;;13.30;99.90;;;;;;5013354;28;20033;-44
2023/10/02 03:31:57;;;;;;;16.83;9.38;;;13.30;99.90;;;;;;5013626;28;20385;-54
2023/10/02 03:34:27;;;;;;;14.90;8.27;;;13.10;99.90;;;;;;5012242;28;20042;-46
2023/10/02 03:36:55;;;;;;;18.42;8.50;;;13.00;99.90;;;;;;5013245;28;20014;-46
2023/10/02 03:39:51;;;;;;;15.60;8.73;;;12.90;99.90;;;;;;5013243;28;20022;-50
2023/10/02 03:42:12;;;;;;;14.65;8.48;;;12.90;99.90;;;;;;5013290;28;20036;-47
2023/10/02 03:44:45;;;;;;;16.08;8.38;;;12.90;99.90;;;;;;5012372;28;20038;-46
2023/10/02 03:47:12;;;;;;;21.90;10.18;;;12.80;99.90;;;;;;5014952;28;20018;-52
2023/10/02 03:49:45;;;;;;;15.55;9.30;;;12.90;99.90;;;;;;5012527;28;20064;-48
2023/10/02 03:52:16;;;;;;;15.90;8.43;;;12.90;99.90;;;;;;5013340;28;20036;-45
2023/10/02 03:54:44;;;;;;;15.18;8.77;;;12.90;99.90;;;;;;5013627;28;20014;-48
2023/10/02 04:00:18;;;;;;;21.48;9.32;;;12.90;99.90;;;;;;4994413;28;20109;-45
2023/10/02 04:02:51;;;;;;;17.23;9.35;;;12.80;99.90;;;;;;5013562;28;20025;-46
2023/10/02 04:05:31;;;;;;;20.88;9.57;;;12.80;99.90;;;;;;5013351;28;20085;-43
2023/10/02 04:10:55;;;;;;;17.58;8.35;;;12.80;99.90;;;;;;5013731;28;20068;-44
2023/10/02 04:13:25;;;;;;;15.45;8.38;;;12.80;99.90;;;;;;5013513;28;20028;-49
2023/10/02 04:16:28;;;;;;;14.95;9.57;;;12.70;99.90;;;;;;5012433;28;20392;-48
2023/10/02 04:18:45;;;;;;;20.85;10.65;;;12.70;99.90;;;;;;5012248;28;20033;-51
2023/10/02 04:21:22;;;;;;;16.85;9.55;;;12.70;99.90;;;;;;5012474;28;20022;-48
2023/10/02 04:23:52;;;;;;;18.85;9.13;;;12.70;99.90;;;;;;5012578;28;20473;-53
2023/10/02 04:26:23;;;;;;;16.48;9.52;;;12.70;99.90;;;;;;5011911;28;20069;-49
2023/10/02 04:28:59;;;;;;;22.55;9.48;;;12.70;99.90;;;;;;5012162;28;20018;-55
2023/10/02 04:31:30;;;;;;;17.75;10.13;;;12.70;99.90;;;;;;5012245;28;20018;-47
2023/10/02 04:36:42;;;;;;;14.13;8.07;;;12.60;99.90;;;;;;5012423;28;20080;-48
2023/10/02 04:42:12;;;;;;;15.30;9.05;;;12.50;99.90;;;;;;5011952;28;20018;-46
2023/10/02 04:44:48;;;;;;;16.83;9.15;;;12.50;99.90;;;;;;5011604;28;20107;-50
2023/10/02 04:47:19;;;;;;;14.23;8.27;;;12.50;99.90;;;;;;5012067;28;20030;-49
2023/10/02 04:55:31;;;;;;;18.85;8.90;;;12.50;99.90;;;;;;5012024;28;20524;-46
2023/10/02 04:58:09;;;;;;;14.25;8.18;;;12.40;99.90;;;;;;5011879;28;20397;-48
2023/10/02 05:00:35;;;;;;;13.55;7.97;;;12.40;99.90;;;;;;5011679;28;20395;-46
2023/10/02 05:03:25;;;;;;;19.00;9.27;;;12.40;99.90;;;;;;5011645;28;20109;-47
2023/10/02 05:05:54;;;;;;;19.05;8.73;;;12.40;99.90;;;;;;5011582;28;20108;-50
2023/10/02 05:08:22;;;;;;;15.10;8.23;;;12.40;99.90;;;;;;5011567;28;20026;-51
2023/10/02 05:11:04;;;;;;;13.32;7.38;;;12.30;99.90;;;;;;5011805;28;20034;-48
2023/10/02 05:13:53;;;;;;;15.32;8.77;;;12.30;99.90;;;;;;5011548;28;20025;-48
2023/10/02 05:16:27;;;;;;;13.63;7.35;;;12.30;99.90;;;;;;5011651;28;20022;-48
2023/10/02 05:18:53;;;;;;;16.73;8.25;;;12.30;99.90;;;;;;5011654;28;20037;-46
2023/10/02 05:21:19;;;;;;;16.83;8.73;;;12.30;99.90;;;;;;5011760;28;20017;-47
2023/10/02 05:24:00;;;;;;;17.48;9.30;;;12.30;99.90;;;;;;5011466;28;20025;-47
2023/10/02 05:26:39;;;;;;;17.33;8.90;;;12.30;99.90;;;;;;5011203;28;20026;-45
2023/10/02 05:29:09;;;;;;;15.50;9.40;;;12.40;99.90;;;;;;5011495;28;20029;-46
2023/10/02 05:31:42;;;;;;;17.50;10.15;;;12.40;99.90;;;;;;5011823;28;20385;-47
2023/10/02 05:34:24;;;;;;;16.58;8.93;;;12.40;99.90;;;;;;5011193;28;20076;-48
2023/10/02 05:39:31;;;;;;;20.25;9.55;;;12.50;99.90;;;;;;5011497;28;20398;-47
2023/10/02 05:42:05;;;;;;;20.92;9.23;;;12.50;99.90;;;;;;5011286;28;20022;-54
2023/10/02 05:44:35;;;;;;;17.05;9.90;;;12.50;99.90;;;;;;5010856;28;20037;-51
2023/10/02 05:47:05;;;;;;;17.55;9.93;;;12.50;99.90;;;;;;5011785;28;20026;-47
2023/10/02 05:49:32;;;;;;;17.55;10.00;;;12.60;99.90;;;;;;5011160;28;20026;-46
2023/10/02 05:52:00;;;;;;;17.38;10.30;;;12.70;99.90;;;;;;5014931;28;20068;-49
2023/10/02 05:54:29;;;;;;;16.25;10.13;;;12.70;99.90;;;;;;5014635;28;20052;-47
2023/10/02 05:57:08;;;;;;;17.80;10.38;;;12.70;99.90;;;;;;5015108;28;20030;-46
2023/10/02 05:59:45;;;;;;;29.23;12.98;;;12.60;99.90;;;;;;5013783;28;20034;-48
2023/10/02 06:02:19;;;;;;;22.17;11.55;;;12.60;99.90;;;;;;5014950;28;20050;-47
2023/10/02 06:04:49;;;;;;;17.52;9.02;;;12.60;99.90;;;;;;5014750;28;20481;-49
2023/10/02 06:07:19;;;;;;;15.73;8.73;;;12.60;99.90;;;;;;5014853;28;20435;-48
2023/10/02 06:09:47;;;;;;;19.23;10.13;;;12.60;99.90;;;;;;5014750;28;20022;-48
2023/10/02 06:12:14;;;;;;;20.88;8.60;;;12.70;99.90;;;;;;5014890;28;20109;-49
2023/10/02 06:14:42;;;;;;;16.15;8.95;;;12.70;99.90;;;;;;5014469;28;20026;-49
2023/10/02 06:17:12;;;;;;;15.23;8.85;;;12.80;99.90;;;;;;5014971;28;20405;-50
2023/10/02 06:19:48;;;;;;;20.25;9.00;;;12.90;99.90;;;;;;5014717;28;20044;-47
2023/10/02 06:22:14;;;;;;;16.35;8.18;;;13.00;99.90;;;;;;5014492;28;20524;-49
2023/10/02 06:24:40;;;;;;;18.92;8.93;;;13.10;99.90;;;;;;5014754;28;20065;-47
2023/10/02 06:27:17;;;;;;;15.80;8.35;;;13.20;99.90;;;;;;5014923;28;20417;-50
2023/10/02 06:29:49;;;;;;;15.13;8.45;;;13.30;99.90;;;;;;5014332;28;20025;-50
2023/10/02 06:32:22;;;;;;;15.48;8.93;;;13.50;99.90;;;;;;5014494;28;20059;-47
2023/10/02 06:34:50;;;;;;;22.13;9.32;;;13.80;99.90;;;;;;5013752;28;20117;-48
2023/10/02 06:37:24;;;;;;;16.42;8.52;;;14.10;99.90;;;;;;5014356;28;20042;-47
2023/10/02 06:40:04;;;;;;;14.73;8.70;;;14.40;99.90;;;;;;5014541;28;20508;-49
2023/10/02 06:42:31;;;;;;;12.45;7.95;;;14.90;99.90;;;;;;5014158;28;20030;-51
2023/10/02 06:45:01;;;;;;;15.88;8.05;;;15.70;99.90;;;;;;5014184;28;20026;-45
2023/10/02 06:47:29;;;;;;;15.73;8.32;;;16.50;99.90;;;;;;5014249;28;20021;-48
2023/10/02 06:50:03;;;;;;;11.93;7.70;;;17.20;99.90;;;;;;5014068;28;20030;-48
2023/10/02 06:52:32;;;;;;;18.13;8.00;;;17.90;99.90;;;;;;5013990;28;20482;-49
2023/10/02 06:54:57;;;;;;;18.33;8.15;;;18.50;99.90;;;;;;5012337;28;20030;-51
2023/10/02 06:57:26;;;;;;;13.68;7.72;;;19.10;99.90;;;;;;5012498;28;20041;-46
2023/10/02 06:59:52;;;;;;;15.95;8.55;;;19.50;99.90;;;;;;5013916;28;20079;-51
2023/10/02 07:02:19;;;;;;;19.35;8.88;;;20.00;99.90;;;;;;5012570;28;20084;-49
2023/10/02 07:04:47;;;;;;;13.38;9.15;;;20.40;99.90;;;;;;5013429;28;20032;-48
2023/10/02 07:07:25;;;;;;;13.00;8.00;;;20.90;99.90;;;;;;5013780;28;20014;-48
2023/10/02 07:10:02;;;;;;;15.98;9.68;;;21.30;99.90;;;;;;5012290;28;20026;-49
2023/10/02 07:12:32;;;;;;;12.38;8.20;;;21.80;99.90;;;;;;5013693;28;20483;-50
2023/10/02 07:15:10;;;;;;;13.63;8.35;;;22.60;99.90;;;;;;5013369;28;20025;-49
2023/10/02 07:17:47;;;;;;;18.20;9.85;;;23.10;99.90;;;;;;5013638;28;20030;-47
2023/10/02 07:20:18;;;;;;;14.77;9.60;;;23.90;99.90;;;;;;5013882;28;20026;-46
2023/10/02 07:22:43;;;;;;;13.00;8.50;;;24.40;99.60;;;;;;5013838;28;20037;-48
2023/10/02 07:25:09;;;;;;;20.55;11.43;;;24.80;99.00;;;;;;5013916;28;20030;-48
2023/10/02 07:27:37;;;;;;;14.30;9.20;;;25.00;98.20;;;;;;5013544;28;20034;-47
2023/10/02 07:30:04;;;;;;;12.02;8.60;;;25.00;97.60;;;;;;5013321;28;20675;-46
2023/10/02 07:32:32;;;;;;;13.73;9.25;;;24.60;97.80;;;;;;5011909;28;20113;-49
2023/10/02 07:35:10;;;;;;;13.93;9.02;;;23.70;99.20;;;;;;5012837;28;20022;-47
2023/10/02 07:37:36;;;;;;;20.95;10.98;;;22.60;99.90;;;;;;5013342;28;20026;-47
2023/10/02 07:40:06;;;;;;;21.48;10.75;;;21.80;99.90;;;;;;5013223;28;20057;-47
2023/10/02 07:42:34;;;;;;;15.00;9.88;;;21.00;99.90;;;;;;5012913;28;20026;-50
2023/10/02 07:45:21;;;;;;;18.23;10.38;;;20.20;99.90;;;;;;5012647;28;20038;-47
2023/10/02 07:48:08;;;;;;;17.48;11.05;;;19.60;99.90;;;;;;5011750;28;20034;-52
2023/10/02 07:50:35;;;;;;;17.75;10.70;;;19.00;99.90;;;;;;5012855;28;20485;-50
2023/10/02 07:53:04;;;;;;;23.80;11.52;;;18.50;99.90;;;;;;5013323;28;20026;-47
2023/10/02 07:55:31;;;;;;;20.55;11.35;;;18.20;99.90;;;;;;5011773;28;20080;-52
2023/10/02 07:58:00;;;;;;;21.92;12.27;;;18.10;99.90;;;;;;5013394;28;20504;-49
2023/10/02 08:00:33;;;;;;;19.30;11.43;;;17.90;99.90;;;;;;5013329;28;20037;-47
2023/10/02 08:03:02;;;;;;;24.77;13.68;;;17.70;99.90;;;;;;5013170;28;20584;-47
2023/10/02 08:05:28;;;;;;;26.60;15.38;;;17.60;99.90;;;;;;5012860;28;20517;-49
2023/10/02 08:08:08;;;;;;;23.33;13.00;;;17.50;99.90;;;;;;5013162;28;20482;-50
2023/10/02 08:10:49;;;;;;;22.58;13.50;;;17.40;99.90;;;;;;5013193;28;20037;-48
2023/10/02 08:13:17;;;;;;;27.83;13.35;;;17.30;99.90;;;;;;5012753;28;20040;-50
2023/10/02 08:15:46;;;;;;;22.48;12.93;;;17.30;99.90;;;;;;5012387;28;20022;-51
2023/10/02 08:18:18;;;;;;;29.05;13.30;;;17.30;99.90;;;;;;5012648;28;20071;-48
2023/10/02 08:20:45;;;;;;;21.45;12.52;;;17.30;99.90;;;;;;5012641;28;20029;-49
2023/10/02 08:23:21;;;;;;;26.48;13.90;;;17.30;99.90;;;;;;5012505;28;20037;-52
2023/10/02 08:26:00;;;;;;;25.50;14.10;;;17.40;99.90;;;;;;5012072;28;20041;-48
2023/10/02 08:28:29;;;;;;;28.60;16.02;;;17.30;99.90;;;;;;5012351;28;20113;-49
2023/10/02 08:30:59;;;;;;;26.95;14.35;;;17.40;99.90;;;;;;5012459;28;20041;-52
2023/10/02 08:33:26;;;;;;;24.55;14.30;;;17.40;99.90;;;;;;5012507;28;20025;-51
2023/10/02 08:35:52;;;;;;;21.70;12.00;;;17.40;99.90;;;;;;5012193;28;20402;-50
2023/10/02 08:38:25;;;;;;;22.95;13.85;;;17.40;99.90;;;;;;5012807;28;20022;-50
2023/10/02 08:40:58;;;;;;;25.30;13.40;;;17.40;99.90;;;;;;5012341;28;20421;-47
2023/10/02 08:43:28;;;;;;;25.92;14.40;;;17.40;99.90;;;;;;5010740;28;20041;-49
2023/10/02 08:45:54;;;;;;;27.10;14.85;;;17.50;99.90;;;;;;5010449;28;20053;-53
2023/10/02 08:48:21;;;;;;;23.67;13.57;;;17.50;99.90;;;;;;5012227;28;20030;-48
2023/10/02 08:50:47;;;;;;;25.67;14.07;;;17.50;99.90;;;;;;5012608;28;20048;-47
2023/10/02 08:53:20;;;;;;;21.65;14.38;;;17.60;99.90;;;;;;5012123;28;20029;-47
2023/10/02 08:58:19;;;;;;;26.65;13.35;;;17.90;99.90;;;;;;5012200;28;20030;-52
2023/10/02 09:03:47;;;;;;;26.80;12.77;;;20.00;99.90;;;;;;5011765;28;20514;-50
2023/10/02 09:06:35;;;;;;;21.38;11.57;;;21.50;99.90;;;;;;5011984;28;20034;-47
2023/10/02 09:09:21;;;;;;;17.67;11.63;;;22.80;99.90;;;;;;5011763;28;20121;-48
2023/10/02 09:11:52;;;;;;;21.15;11.55;;;23.90;99.90;;;;;;5011626;28;20026;-49
2023/10/02 09:14:39;;;;;;;22.40;10.85;;;25.00;99.90;;;;;;5011527;28;20106;-45
2023/10/02 09:17:16;;;;;;;21.48;11.85;;;25.70;99.90;;;;;;5010398;28;20447;-50
2023/10/02 09:19:57;;;;;;;21.05;11.63;;;26.70;98.80;;;;;;5011935;28;20030;-48
2023/10/02 09:22:25;;;;;;;21.85;11.88;;;27.10;98.10;;;;;;5010711;28;20038;-47
2023/10/02 09:25:09;;;;;;;19.77;10.30;;;27.40;97.00;;;;;;5012118;28;20080;-52
2023/10/02 09:27:38;;;;;;;23.83;11.70;;;27.60;96.50;;;;;;5016074;28;20022;-46
2023/10/02 09:32:47;;;;;;;21.92;10.30;;;27.70;96.40;;;;;;5015229;28;20034;-45
2023/10/02 09:35:50;;;;;;;22.02;11.65;;;27.80;95.90;;;;;;5014695;28;20033;-46
2023/10/02 09:38:17;;;;;;;18.48;10.55;;;28.00;95.60;;;;;;5015230;28;20022;-46
2023/10/02 09:43:42;;;;;;;20.55;10.98;;;27.10;96.10;;;;;;4992129;28;20083;-51
2023/10/02 09:46:21;;;;;;;24.33;12.63;;;26.50;96.90;;;;;;5015143;28;20042;-46
2023/10/02 09:49:09;;;;;;;20.30;11.45;;;26.30;97.30;;;;;;5015233;28;20026;-46
2023/10/02 09:52:09;;;;;;;22.10;11.60;;;25.70;98.10;;;;;;5015322;28;20018;-48
2023/10/02 09:54:40;;;;;;;22.70;12.13;;;25.50;98.70;;;;;;5014815;28;20052;-48
2023/10/02 09:57:12;;;;;;;17.63;10.95;;;25.40;98.70;;;;;;5015081;28;20037;-48
2023/10/02 09:59:46;;;;;;;25.70;11.32;;;25.30;99.20;;;;;;5015463;28;20053;-48
2023/10/02 10:05:02;;;;;;;16.40;10.65;;;25.10;99.60;;;;;;5015756;28;20034;-49
2023/10/02 10:07:46;;;;;;;21.65;11.25;;;25.30;99.80;;;;;;5015795;28;20022;-48
2023/10/02 10:10:27;;;;;;;17.90;10.60;;;25.20;99.90;;;;;;5015104;28;20030;-48
2023/10/02 10:12:58;;;;;;;22.80;11.73;;;25.30;99.60;;;;;;5014772;28;20183;-46
2023/10/02 10:15:25;;;;;;;19.80;9.57;;;25.10;99.50;;;;;;5014650;28;20034;-48
2023/10/02 10:17:51;;;;;;;22.30;11.00;;;24.90;99.90;;;;;;5014923;28;20077;-51
2023/10/02 10:20:20;;;;;;;19.27;10.35;;;24.80;99.90;;;;;;5014592;28;20030;-48
2023/10/02 10:22:51;;;;;;;21.65;10.50;;;24.60;99.90;;;;;;5014470;28;20100;-51
2023/10/02 10:28:14;;;;;;;20.38;11.20;;;24.30;99.90;;;;;;5014416;28;20075;-50
2023/10/02 10:30:46;;;;;;;21.52;11.23;;;24.10;99.90;;;;;;5014462;28;20063;-48
2023/10/02 10:33:16;;;;;;;33.70;18.95;;;23.80;99.90;;;;;;5014454;28;20440;-51
2023/10/02 10:35:58;;;;;;;24.08;11.30;;;23.50;99.90;;;;;;5013738;28;20014;-50
2023/10/02 10:38:57;;;;;;;20.92;11.68;;;23.30;99.90;;;;;;5014383;28;20488;-48
2023/10/02 10:41:35;;;;;;;24.92;11.55;;;23.20;99.90;;;;;;5012218;28;20032;-50
2023/10/02 10:44:06;;;;;;;21.88;11.02;;;23.00;99.90;;;;;;5014043;28;20041;-48
2023/10/02 10:46:32;;;;;;;22.02;10.15;;;23.10;99.90;;;;;;5013060;28;20026;-52
2023/10/02 10:49:07;;;;;;;20.40;11.43;;;23.00;99.90;;;;;;5013982;28;20026;-49
2023/10/02 10:51:33;;;;;;;;;;;23.10;99.90;;;;;;5014502;28;20018;-47
2023/10/02 10:54:12;;;;;;;24.75;11.23;;;22.90;99.90;;;;;;5012599;28;19999;-48
2023/10/02 10:56:44;;;;;;;20.58;11.30;;;22.90;99.90;;;;;;5013981;28;20021;-46
2023/10/02 10:59:22;;;;;;;20.45;10.27;;;22.80;99.90;;;;;;5013983;28;20030;-48
2023/10/02 11:04:48;;;;;;;22.15;10.27;;;22.60;99.90;;;;;;5013485;28;20555;-49
2023/10/02 11:07:25;;;;;;;23.15;10.10;;;22.50;99.90;;;;;;5013666;28;20037;-46
2023/10/02 11:10:42;;;;;;;24.67;10.35;;;22.60;99.90;;;;;;5013693;28;20026;-50
2023/10/02 11:13:08;;;;;;;26.42;11.07;;;22.60;99.90;;;;;;5005950;28;20490;-47
2023/10/02 11:15:47;;;;;;;17.45;8.98;;;22.80;99.90;;;;;;5013198;28;20048;-46
2023/10/02 11:18:20;;;;;;;19.05;10.70;;;22.80;99.90;;;;;;5013506;28;20026;-48
2023/10/02 11:21:23;;;;;;;18.80;10.10;;;22.70;99.90;;;;;;5013528;28;20033;-47
2023/10/02 11:23:49;;;;;;;16.15;8.75;;;22.90;99.90;;;;;;5012367;28;20117;-50
2023/10/02 11:26:21;;;;;;;16.05;9.05;;;22.80;99.90;;;;;;5013354;28;20076;-45
2023/10/02 11:28:50;;;;;;;20.10;9.27;;;22.80;99.90;;;;;;5013545;28;20022;-50
2023/10/02 11:31:29;;;;;;;19.92;10.35;;;22.80;99.90;;;;;;5013496;28;20026;-45
2023/10/02 11:34:00;;;;;;;18.83;9.40;;;22.80;99.90;;;;;;5013167;28;20045;-44
2023/10/02 11:36:28;;;;;;;17.90;9.40;;;22.90;99.90;;;;;;5012861;28;20026;-46
2023/10/02 11:38:55;;;;;;;17.35;9.50;;;22.70;99.90;;;;;;5013648;28;20022;-46
2023/10/02 11:41:21;;;;;;;22.30;9.88;;;22.70;99.90;;;;;;5013128;28;20017;-46
2023/10/02 11:43:46;;;;;;;18.48;9.63;;;22.80;99.90;;;;;;5013091;28;20029;-47
2023/10/02 11:46:12;;;;;;;17.15;9.85;;;22.80;99.90;;;;;;5013010;28;20038;-50
2023/10/02 11:48:38;;;;;;;20.70;9.38;;;22.80;99.90;;;;;;5012567;28;20030;-46
2023/10/02 11:51:03;;;;;;;24.75;9.00;;;22.80;99.90;;;;;;5012543;28;20493;-46
2023/10/02 11:53:29;;;;;;;15.60;8.50;;;22.80;99.90;;;;;;5012502;28;20030;-47
2023/10/02 11:55:54;;;;;;;18.73;9.15;;;22.90;99.90;;;;;;5011940;28;20105;-47
2023/10/02 11:58:20;;;;;;;19.75;9.30;;;22.90;99.90;;;;;;5010197;28;20033;-51
2023/10/02 12:00:45;;;;;;;20.35;10.05;;;22.90;99.90;;;;;;5011609;28;20116;-48
2023/10/02 12:03:11;;;;;;;16.90;9.00;;;22.90;99.90;;;;;;5011002;28;20437;-49
2023/10/02 12:05:37;;;;;;;21.95;9.05;;;22.90;99.90;;;;;;5011290;28;20041;-52
2023/10/02 12:08:03;;;;;;;19.35;9.88;;;23.00;99.90;;;;;;5012543;28;20393;-50
2023/10/02 12:10:30;;;;;;;23.05;10.00;;;23.00;99.90;;;;;;5012572;28;20485;-47
2023/10/02 12:12:55;;;;;;;112.32;84.95;;;23.00;99.90;;;;;;5012623;28;20093;-48
2023/10/02 12:15:21;;;;;;;29.73;18.73;;;23.10;99.90;;;;;;5012434;28;20022;-51
2023/10/02 12:17:47;;;;;;;61.85;39.10;;;23.10;99.90;;;;;;5012575;28;20536;-46
2023/10/02 12:20:16;;;;;;;19.20;10.65;;;23.20;99.90;;;;;;5012531;28;20112;-47
2023/10/02 12:22:46;;;;;;;21.05;9.95;;;23.20;99.90;;;;;;5012071;28;20022;-46
2023/10/02 12:25:12;;;;;;;18.80;9.30;;;23.30;99.90;;;;;;5012192;28;20038;-51
2023/10/02 12:27:39;;;;;;;17.08;9.60;;;23.30;99.90;;;;;;5012462;28;20021;-49
2023/10/02 12:30:06;;;;;;;20.10;9.55;;;23.30;99.90;;;;;;5012234;28;20050;-48
2023/10/02 12:32:33;;;;;;;17.60;9.10;;;23.30;99.90;;;;;;5012138;28;20018;-51
2023/10/02 12:34:59;;;;;;;17.05;8.43;;;23.40;99.90;;;;;;5011624;28;20014;-47
2023/10/02 12:37:25;;;;;;;18.98;9.70;;;23.40;99.90;;;;;;5012203;28;20048;-49
2023/10/02 12:39:55;;;;;;;21.08;10.75;;;23.50;99.90;;;;;;5012097;28;20101;-48
2023/10/02 12:42:21;;;;;;;22.83;10.20;;;23.60;99.90;;;;;;5011922;28;20022;-49
2023/10/02 12:44:48;;;;;;;19.80;9.93;;;23.70;99.90;;;;;;5011962;28;20037;-46
2023/10/02 12:47:15;;;;;;;19.88;9.48;;;23.60;99.90;;;;;;5012328;28;20029;-45
2023/10/02 12:49:40;;;;;;;28.13;10.60;;;23.60;99.90;;;;;;5011779;28;20048;-48
2023/10/02 12:52:06;;;;;;;15.68;8.48;;;23.70;99.90;;;;;;5011865;28;20101;-48
2023/10/02 12:54:32;;;;;;;23.38;10.02;;;23.80;99.90;;;;;;5011610;28;20017;-49
2023/10/02 12:56:57;;;;;;;23.20;10.32;;;23.80;99.90;;;;;;5011754;28;20060;-47
2023/10/02 12:59:23;;;;;;;17.13;8.95;;;23.90;99.90;;;;;;5010942;28;20037;-49
2023/10/02 13:01:50;;;;;;;17.33;9.25;;;23.90;99.90;;;;;;5011783;28;20029;-45
2023/10/02 13:04:16;;;;;;;18.65;10.27;;;23.90;99.90;;;;;;5011379;28;20025;-50
2023/10/02 13:06:45;;;;;;;20.77;10.40;;;23.90;99.90;;;;;;5011618;28;20099;-47
2023/10/02 13:09:14;;;;;;;19.20;9.68;;;23.90;99.90;;;;;;5011395;28;20029;-47
2023/10/02 13:11:40;;;;;;;19.00;10.98;;;24.00;99.90;;;;;;5011591;28;20049;-49
2023/10/02 13:14:09;;;;;;;20.20;10.00;;;23.90;99.90;;;;;;5011112;28;20029;-49
2023/10/02 13:16:41;;;;;;;16.20;9.02;;;24.00;99.90;;;;;;5011714;28;20046;-47
2023/10/02 13:19:09;;;;;;;17.55;9.90;;;24.00;99.90;;;;;;5011870;28;20363;-49
2023/10/02 13:21:38;;;;;;;20.55;10.10;;;24.00;99.90;;;;;;5011580;28;20045;-47
2023/10/02 13:24:05;;;;;;;18.25;9.95;;;24.00;99.90;;;;;;5011008;28;20026;-50
2023/10/02 13:26:31;;;;;;;21.75;10.68;;;24.00;99.90;;;;;;5011430;28;20018;-46
2023/10/02 13:28:57;;;;;;;19.98;9.82;;;24.00;99.90;;;;;;5011387;28;20029;-49
2023/10/02 13:31:24;;;;;;;15.68;8.88;;;24.00;99.90;;;;;;5011429;28;20049;-48
2023/10/02 13:33:53;;;;;;;27.33;10.00;;;24.00;99.90;;;;;;5011198;28;20025;-50
2023/10/02 13:36:25;;;;;;;18.13;10.32;;;23.90;99.90;;;;;;5010778;28;20548;-46
2023/10/02 13:38:58;;;;;;;20.23;10.50;;;24.00;99.90;;;;;;5011449;28;20029;-50
2023/10/02 13:41:26;;;;;;;21.63;9.70;;;24.10;99.90;;;;;;5011316;28;20022;-48
2023/10/02 13:43:54;;;;;;;19.80;10.38;;;24.10;99.90;;;;;;5011141;28;20021;-47
2023/10/02 13:46:21;;;;;;;20.27;10.43;;;24.20;99.90;;;;;;5010871;28;20064;-50
2023/10/02 13:48:49;;;;;;;18.52;10.27;;;24.20;99.90;;;;;;5011428;28;20540;-48